sensor_id;sensor_type;location;lat;lon;timestamp;P1;P2;P0
64631;PMS5003;58358;50.936;0.246;2022-08-21T00:01:12;14;12;
64631;PMS5003;58358;50.936;0.246;2022-08-21T00:03:37;12;12;
64631;PMS5003;58358;50.936;0.246;2022-08-21T00:06:03;14;13;
64631;PMS5003;58358;50.936;0.246;2022-08-21T00:08:28;15;13;
64631;PMS5003;58358;50.936;0.246;2022-08-21T00:10:54;11;9;
64631;PMS5003;58358;50.936;0.246;2022-08-21T00:13:19;9;9;
64631;PMS5003;58358;50.936;0.246;2022-08-21T00:15:45;13;13;
64631;PMS5003;58358;50.936;0.246;2022-08-21T00:18:11;18;14;
64631;PMS5003;58358;50.936;0.246;2022-08-21T00:20:37;13;13;
64631;PMS5003;58358;50.936;0.246;2022-08-21T00:23:02;9;9;
64631;PMS5003;58358;50.936;0.246;2022-08-21T00:25:28;10;10;
64631;PMS5003;58358;50.936;0.246;2022-08-21T00:27:54;7;7;
64631;PMS5003;58358;50.936;0.246;2022-08-21T00:30:21;12;12;
64631;PMS5003;58358;50.936;0.246;2022-08-21T00:32:45;9;9;
64631;PMS5003;58358;50.936;0.246;2022-08-21T00:35:13;9;8;
64631;PMS5003;58358;50.936;0.246;2022-08-21T00:37:36;14;12;
64631;PMS5003;58358;50.936;0.246;2022-08-21T00:40:06;7;7;
64631;PMS5003;58358;50.936;0.246;2022-08-21T00:42:28;8;8;
64631;PMS5003;58358;50.936;0.246;2022-08-21T00:44:53;11;11;
64631;PMS5003;58358;50.936;0.246;2022-08-21T00:47:18;6;5;
64631;PMS5003;58358;50.936;0.246;2022-08-21T00:49:44;8;7;
64631;PMS5003;58358;50.936;0.246;2022-08-21T00:52:10;13;10;
64631;PMS5003;58358;50.936;0.246;2022-08-21T00:54:35;10;10;
64631;PMS5003;58358;50.936;0.246;2022-08-21T00:57:02;9;8;
64631;PMS5003;58358;50.936;0.246;2022-08-21T00:59:27;11;10;
64631;PMS5003;58358;50.936;0.246;2022-08-21T01:01:52;11;10;
64631;PMS5003;58358;50.936;0.246;2022-08-21T01:04:18;12;12;
64631;PMS5003;58358;50.936;0.246;2022-08-21T01:06:44;12;11;
64631;PMS5003;58358;50.936;0.246;2022-08-21T01:09:09;11;11;
64631;PMS5003;58358;50.936;0.246;2022-08-21T01:11:34;9;9;
64631;PMS5003;58358;50.936;0.246;2022-08-21T01:14:00;8;8;
64631;PMS5003;58358;50.936;0.246;2022-08-21T01:16:26;8;8;
64631;PMS5003;58358;50.936;0.246;2022-08-21T01:18:52;10;10;
64631;PMS5003;58358;50.936;0.246;2022-08-21T01:21:18;10;10;
64631;PMS5003;58358;50.936;0.246;2022-08-21T01:23:44;9;9;
64631;PMS5003;58358;50.936;0.246;2022-08-21T01:26:11;8;6;
64631;PMS5003;58358;50.936;0.246;2022-08-21T01:28:36;9;8;
64631;PMS5003;58358;50.936;0.246;2022-08-21T01:31:00;9;9;
64631;PMS5003;58358;50.936;0.246;2022-08-21T01:33:26;10;10;
64631;PMS5003;58358;50.936;0.246;2022-08-21T01:35:52;9;8;
64631;PMS5003;58358;50.936;0.246;2022-08-21T01:38:17;8;8;
64631;PMS5003;58358;50.936;0.246;2022-08-21T01:40:43;6;6;
64631;PMS5003;58358;50.936;0.246;2022-08-21T01:43:10;7;7;
64631;PMS5003;58358;50.936;0.246;2022-08-21T01:45:34;9;9;
64631;PMS5003;58358;50.936;0.246;2022-08-21T01:48:00;13;12;
64631;PMS5003;58358;50.936;0.246;2022-08-21T01:50:25;9;9;
64631;PMS5003;58358;50.936;0.246;2022-08-21T01:52:51;7;6;
64631;PMS5003;58358;50.936;0.246;2022-08-21T01:55:17;10;8;
64631;PMS5003;58358;50.936;0.246;2022-08-21T01:57:43;9;7;
64631;PMS5003;58358;50.936;0.246;2022-08-21T02:00:10;8;8;
64631;PMS5003;58358;50.936;0.246;2022-08-21T02:02:34;8;8;
64631;PMS5003;58358;50.936;0.246;2022-08-21T02:05:00;8;8;
64631;PMS5003;58358;50.936;0.246;2022-08-21T02:07:25;7;7;
64631;PMS5003;58358;50.936;0.246;2022-08-21T02:09:51;5;5;
64631;PMS5003;58358;50.936;0.246;2022-08-21T02:12:17;10;8;
64631;PMS5003;58358;50.936;0.246;2022-08-21T02:14:43;7;7;
64631;PMS5003;58358;50.936;0.246;2022-08-21T02:17:08;5;5;
64631;PMS5003;58358;50.936;0.246;2022-08-21T02:19:34;7;6;
64631;PMS5003;58358;50.936;0.246;2022-08-21T02:22:00;6;6;
64631;PMS5003;58358;50.936;0.246;2022-08-21T02:24:26;7;7;
64631;PMS5003;58358;50.936;0.246;2022-08-21T02:26:52;6;6;
64631;PMS5003;58358;50.936;0.246;2022-08-21T02:29:17;6;5;
64631;PMS5003;58358;50.936;0.246;2022-08-21T02:31:43;9;7;
64631;PMS5003;58358;50.936;0.246;2022-08-21T02:34:10;7;6;
64631;PMS5003;58358;50.936;0.246;2022-08-21T02:36:35;7;6;
64631;PMS5003;58358;50.936;0.246;2022-08-21T02:39:00;5;5;
64631;PMS5003;58358;50.936;0.246;2022-08-21T02:41:26;5;5;
64631;PMS5003;58358;50.936;0.246;2022-08-21T02:43:52;6;6;
64631;PMS5003;58358;50.936;0.246;2022-08-21T02:46:19;6;5;
64631;PMS5003;58358;50.936;0.246;2022-08-21T02:48:43;5;5;
64631;PMS5003;58358;50.936;0.246;2022-08-21T02:51:10;7;5;
64631;PMS5003;58358;50.936;0.246;2022-08-21T02:53:35;6;5;
64631;PMS5003;58358;50.936;0.246;2022-08-21T02:56:02;6;5;
64631;PMS5003;58358;50.936;0.246;2022-08-21T02:58:27;5;5;
64631;PMS5003;58358;50.936;0.246;2022-08-21T03:00:52;5;5;
64631;PMS5003;58358;50.936;0.246;2022-08-21T03:03:18;5;5;
64631;PMS5003;58358;50.936;0.246;2022-08-21T03:05:44;4;4;
64631;PMS5003;58358;50.936;0.246;2022-08-21T03:08:11;4;4;
64631;PMS5003;58358;50.936;0.246;2022-08-21T03:10:35;3;3;
64631;PMS5003;58358;50.936;0.246;2022-08-21T03:13:01;7;4;
64631;PMS5003;58358;50.936;0.246;2022-08-21T03:15:27;4;4;
64631;PMS5003;58358;50.936;0.246;2022-08-21T03:17:52;6;4;
64631;PMS5003;58358;50.936;0.246;2022-08-21T03:20:19;6;6;
64631;PMS5003;58358;50.936;0.246;2022-08-21T03:22:44;5;5;
64631;PMS5003;58358;50.936;0.246;2022-08-21T03:25:10;7;6;
64631;PMS5003;58358;50.936;0.246;2022-08-21T03:27:35;6;6;
64631;PMS5003;58358;50.936;0.246;2022-08-21T03:30:02;3;3;
64631;PMS5003;58358;50.936;0.246;2022-08-21T03:32:29;4;4;
64631;PMS5003;58358;50.936;0.246;2022-08-21T03:34:53;3;3;
64631;PMS5003;58358;50.936;0.246;2022-08-21T03:37:18;5;5;
64631;PMS5003;58358;50.936;0.246;2022-08-21T03:39:44;3;3;
64631;PMS5003;58358;50.936;0.246;2022-08-21T03:42:10;4;4;
64631;PMS5003;58358;50.936;0.246;2022-08-21T03:44:36;5;5;
64631;PMS5003;58358;50.936;0.246;2022-08-21T03:47:02;6;5;
64631;PMS5003;58358;50.936;0.246;2022-08-21T03:49:27;5;5;
64631;PMS5003;58358;50.936;0.246;2022-08-21T03:51:53;3;3;
64631;PMS5003;58358;50.936;0.246;2022-08-21T03:54:19;8;6;
64631;PMS5003;58358;50.936;0.246;2022-08-21T03:56:45;6;6;
64631;PMS5003;58358;50.936;0.246;2022-08-21T03:59:11;5;5;
64631;PMS5003;58358;50.936;0.246;2022-08-21T04:01:36;8;6;
64631;PMS5003;58358;50.936;0.246;2022-08-21T04:04:03;5;5;
64631;PMS5003;58358;50.936;0.246;2022-08-21T04:06:28;4;4;
64631;PMS5003;58358;50.936;0.246;2022-08-21T04:08:53;7;6;
64631;PMS5003;58358;50.936;0.246;2022-08-21T04:11:19;4;4;
64631;PMS5003;58358;50.936;0.246;2022-08-21T04:13:45;8;5;
64631;PMS5003;58358;50.936;0.246;2022-08-21T04:16:11;3;3;
64631;PMS5003;58358;50.936;0.246;2022-08-21T04:18:36;5;3;
64631;PMS5003;58358;50.936;0.246;2022-08-21T04:21:02;8;7;
64631;PMS5003;58358;50.936;0.246;2022-08-21T04:23:28;4;4;
64631;PMS5003;58358;50.936;0.246;2022-08-21T04:25:54;4;4;
64631;PMS5003;58358;50.936;0.246;2022-08-21T04:28:20;3;3;
64631;PMS5003;58358;50.936;0.246;2022-08-21T04:30:45;7;5;
64631;PMS5003;58358;50.936;0.246;2022-08-21T04:33:11;5;5;
64631;PMS5003;58358;50.936;0.246;2022-08-21T04:35:37;5;4;
64631;PMS5003;58358;50.936;0.246;2022-08-21T04:38:03;5;5;
64631;PMS5003;58358;50.936;0.246;2022-08-21T04:40:28;5;4;
64631;PMS5003;58358;50.936;0.246;2022-08-21T04:42:56;5;5;
64631;PMS5003;58358;50.936;0.246;2022-08-21T04:45:22;6;5;
64631;PMS5003;58358;50.936;0.246;2022-08-21T04:47:46;5;5;
64631;PMS5003;58358;50.936;0.246;2022-08-21T04:50:12;5;4;
64631;PMS5003;58358;50.936;0.246;2022-08-21T04:52:37;6;6;
64631;PMS5003;58358;50.936;0.246;2022-08-21T04:55:03;4;4;
64631;PMS5003;58358;50.936;0.246;2022-08-21T04:57:30;5;3;
64631;PMS5003;58358;50.936;0.246;2022-08-21T04:59:55;4;4;
64631;PMS5003;58358;50.936;0.246;2022-08-21T05:02:22;3;3;
64631;PMS5003;58358;50.936;0.246;2022-08-21T05:04:52;4;4;
64631;PMS5003;58358;50.936;0.246;2022-08-21T05:07:13;4;4;
64631;PMS5003;58358;50.936;0.246;2022-08-21T05:09:38;5;5;
64631;PMS5003;58358;50.936;0.246;2022-08-21T05:12:04;6;4;
64631;PMS5003;58358;50.936;0.246;2022-08-21T05:14:29;3;3;
64631;PMS5003;58358;50.936;0.246;2022-08-21T05:16:55;6;6;
64631;PMS5003;58358;50.936;0.246;2022-08-21T05:19:21;7;4;
64631;PMS5003;58358;50.936;0.246;2022-08-21T05:21:47;4;4;
64631;PMS5003;58358;50.936;0.246;2022-08-21T05:24:14;7;4;
64631;PMS5003;58358;50.936;0.246;2022-08-21T05:26:38;5;4;
64631;PMS5003;58358;50.936;0.246;2022-08-21T05:29:04;7;7;
64631;PMS5003;58358;50.936;0.246;2022-08-21T05:31:30;5;5;
64631;PMS5003;58358;50.936;0.246;2022-08-21T05:33:55;5;4;
64631;PMS5003;58358;50.936;0.246;2022-08-21T05:36:22;5;5;
64631;PMS5003;58358;50.936;0.246;2022-08-21T05:38:47;7;6;
64631;PMS5003;58358;50.936;0.246;2022-08-21T05:41:12;4;4;
64631;PMS5003;58358;50.936;0.246;2022-08-21T05:43:38;7;4;
64631;PMS5003;58358;50.936;0.246;2022-08-21T05:46:04;6;4;
64631;PMS5003;58358;50.936;0.246;2022-08-21T05:48:30;5;4;
64631;PMS5003;58358;50.936;0.246;2022-08-21T05:50:56;7;5;
64631;PMS5003;58358;50.936;0.246;2022-08-21T05:53:21;5;5;
64631;PMS5003;58358;50.936;0.246;2022-08-21T05:55:47;4;4;
64631;PMS5003;58358;50.936;0.246;2022-08-21T05:58:13;4;3;
64631;PMS5003;58358;50.936;0.246;2022-08-21T06:00:38;5;5;
64631;PMS5003;58358;50.936;0.246;2022-08-21T06:03:04;4;4;
64631;PMS5003;58358;50.936;0.246;2022-08-21T06:05:30;4;4;
64631;PMS5003;58358;50.936;0.246;2022-08-21T06:07:56;3;3;
64631;PMS5003;58358;50.936;0.246;2022-08-21T06:10:22;7;6;
64631;PMS5003;58358;50.936;0.246;2022-08-21T06:12:52;3;3;
64631;PMS5003;58358;50.936;0.246;2022-08-21T06:15:14;7;7;
64631;PMS5003;58358;50.936;0.246;2022-08-21T06:17:38;5;4;
64631;PMS5003;58358;50.936;0.246;2022-08-21T06:20:05;7;7;
64631;PMS5003;58358;50.936;0.246;2022-08-21T06:22:30;5;5;
64631;PMS5003;58358;50.936;0.246;2022-08-21T06:24:56;6;6;
64631;PMS5003;58358;50.936;0.246;2022-08-21T06:27:21;8;6;
64631;PMS5003;58358;50.936;0.246;2022-08-21T06:29:47;3;3;
64631;PMS5003;58358;50.936;0.246;2022-08-21T06:32:13;3;3;
64631;PMS5003;58358;50.936;0.246;2022-08-21T06:34:39;6;6;
64631;PMS5003;58358;50.936;0.246;2022-08-21T06:37:04;5;4;
64631;PMS5003;58358;50.936;0.246;2022-08-21T06:39:30;5;5;
64631;PMS5003;58358;50.936;0.246;2022-08-21T06:41:55;6;6;
64631;PMS5003;58358;50.936;0.246;2022-08-21T06:44:21;3;3;
64631;PMS5003;58358;50.936;0.246;2022-08-21T06:46:47;7;4;
64631;PMS5003;58358;50.936;0.246;2022-08-21T06:49:12;5;5;
64631;PMS5003;58358;50.936;0.246;2022-08-21T06:51:38;4;4;
64631;PMS5003;58358;50.936;0.246;2022-08-21T06:54:03;5;4;
64631;PMS5003;58358;50.936;0.246;2022-08-21T06:56:31;5;5;
64631;PMS5003;58358;50.936;0.246;2022-08-21T06:58:55;4;4;
64631;PMS5003;58358;50.936;0.246;2022-08-21T07:01:20;7;5;
64631;PMS5003;58358;50.936;0.246;2022-08-21T07:03:46;6;5;
64631;PMS5003;58358;50.936;0.246;2022-08-21T07:06:11;6;4;
64631;PMS5003;58358;50.936;0.246;2022-08-21T07:08:39;5;4;
64631;PMS5003;58358;50.936;0.246;2022-08-21T07:11:04;7;5;
64631;PMS5003;58358;50.936;0.246;2022-08-21T07:13:28;6;6;
64631;PMS5003;58358;50.936;0.246;2022-08-21T07:15:55;4;4;
64631;PMS5003;58358;50.936;0.246;2022-08-21T07:18:21;7;5;
64631;PMS5003;58358;50.936;0.246;2022-08-21T07:20:45;7;6;
64631;PMS5003;58358;50.936;0.246;2022-08-21T07:23:11;6;6;
64631;PMS5003;58358;50.936;0.246;2022-08-21T07:25:37;5;5;
64631;PMS5003;58358;50.936;0.246;2022-08-21T07:28:03;33;32;
64631;PMS5003;58358;50.936;0.246;2022-08-21T07:30:28;7;5;
64631;PMS5003;58358;50.936;0.246;2022-08-21T07:32:53;4;4;
64631;PMS5003;58358;50.936;0.246;2022-08-21T07:35:19;6;6;
64631;PMS5003;58358;50.936;0.246;2022-08-21T07:37:44;9;9;
64631;PMS5003;58358;50.936;0.246;2022-08-21T07:40:10;5;5;
64631;PMS5003;58358;50.936;0.246;2022-08-21T07:45:01;9;9;
64631;PMS5003;58358;50.936;0.246;2022-08-21T07:47:26;6;5;
64631;PMS5003;58358;50.936;0.246;2022-08-21T07:49:52;7;7;
64631;PMS5003;58358;50.936;0.246;2022-08-21T07:52:18;7;7;
64631;PMS5003;58358;50.936;0.246;2022-08-21T07:54:43;6;6;
64631;PMS5003;58358;50.936;0.246;2022-08-21T07:57:09;5;5;
64631;PMS5003;58358;50.936;0.246;2022-08-21T07:59:34;6;6;
64631;PMS5003;58358;50.936;0.246;2022-08-21T08:02:00;7;6;
64631;PMS5003;58358;50.936;0.246;2022-08-21T08:04:26;7;5;
64631;PMS5003;58358;50.936;0.246;2022-08-21T08:06:53;7;4;
64631;PMS5003;58358;50.936;0.246;2022-08-21T08:09:17;5;4;
64631;PMS5003;58358;50.936;0.246;2022-08-21T08:11:43;6;6;
64631;PMS5003;58358;50.936;0.246;2022-08-21T08:14:08;7;5;
64631;PMS5003;58358;50.936;0.246;2022-08-21T08:16:34;5;5;
64631;PMS5003;58358;50.936;0.246;2022-08-21T08:18:59;5;5;
64631;PMS5003;58358;50.936;0.246;2022-08-21T08:21:25;17;15;
64631;PMS5003;58358;50.936;0.246;2022-08-21T08:23:50;3;3;
64631;PMS5003;58358;50.936;0.246;2022-08-21T08:26:16;7;5;
64631;PMS5003;58358;50.936;0.246;2022-08-21T08:28:41;6;6;
64631;PMS5003;58358;50.936;0.246;2022-08-21T08:31:07;4;4;
64631;PMS5003;58358;50.936;0.246;2022-08-21T08:33:33;7;6;
64631;PMS5003;58358;50.936;0.246;2022-08-21T08:35:58;7;6;
64631;PMS5003;58358;50.936;0.246;2022-08-21T08:38:24;9;8;
64631;PMS5003;58358;50.936;0.246;2022-08-21T08:40:52;5;5;
64631;PMS5003;58358;50.936;0.246;2022-08-21T08:43:16;9;9;
64631;PMS5003;58358;50.936;0.246;2022-08-21T08:45:43;14;14;
64631;PMS5003;58358;50.936;0.246;2022-08-21T08:48:08;61;60;
64631;PMS5003;58358;50.936;0.246;2022-08-21T08:50:38;99;98;
64631;PMS5003;58358;50.936;0.246;2022-08-21T08:52:59;66;62;
64631;PMS5003;58358;50.936;0.246;2022-08-21T08:55:23;9;7;
64631;PMS5003;58358;50.936;0.246;2022-08-21T08:57:48;8;8;
64631;PMS5003;58358;50.936;0.246;2022-08-21T09:00:15;12;12;
64631;PMS5003;58358;50.936;0.246;2022-08-21T09:02:40;10;10;
64631;PMS5003;58358;50.936;0.246;2022-08-21T09:05:06;9;9;
64631;PMS5003;58358;50.936;0.246;2022-08-21T09:07:33;9;8;
64631;PMS5003;58358;50.936;0.246;2022-08-21T09:10:03;7;6;
64631;PMS5003;58358;50.936;0.246;2022-08-21T09:12:29;6;6;
64631;PMS5003;58358;50.936;0.246;2022-08-21T09:14:55;8;6;
64631;PMS5003;58358;50.936;0.246;2022-08-21T09:17:19;7;7;
64631;PMS5003;58358;50.936;0.246;2022-08-21T09:19:44;6;5;
64631;PMS5003;58358;50.936;0.246;2022-08-21T09:22:07;4;4;
64631;PMS5003;58358;50.936;0.246;2022-08-21T09:24:32;5;5;
64631;PMS5003;58358;50.936;0.246;2022-08-21T09:26:59;9;5;
64631;PMS5003;58358;50.936;0.246;2022-08-21T09:29:23;3;3;
64631;PMS5003;58358;50.936;0.246;2022-08-21T09:31:47;6;5;
64631;PMS5003;58358;50.936;0.246;2022-08-21T09:34:23;6;4;
64631;PMS5003;58358;50.936;0.246;2022-08-21T09:36:40;5;5;
64631;PMS5003;58358;50.936;0.246;2022-08-21T09:39:04;5;5;
64631;PMS5003;58358;50.936;0.246;2022-08-21T09:41:31;3;3;
64631;PMS5003;58358;50.936;0.246;2022-08-21T09:43:55;5;5;
64631;PMS5003;58358;50.936;0.246;2022-08-21T09:46:22;6;4;
64631;PMS5003;58358;50.936;0.246;2022-08-21T09:48:47;6;5;
64631;PMS5003;58358;50.936;0.246;2022-08-21T09:51:14;4;4;
64631;PMS5003;58358;50.936;0.246;2022-08-21T09:53:38;5;4;
64631;PMS5003;58358;50.936;0.246;2022-08-21T09:56:05;9;7;
64631;PMS5003;58358;50.936;0.246;2022-08-21T09:58:30;4;4;
64631;PMS5003;58358;50.936;0.246;2022-08-21T10:00:56;7;7;
64631;PMS5003;58358;50.936;0.246;2022-08-21T10:03:22;4;4;
64631;PMS5003;58358;50.936;0.246;2022-08-21T10:05:50;5;5;
64631;PMS5003;58358;50.936;0.246;2022-08-21T10:08:18;6;4;
64631;PMS5003;58358;50.936;0.246;2022-08-21T10:10:37;9;6;
64631;PMS5003;58358;50.936;0.246;2022-08-21T10:13:04;7;7;
64631;PMS5003;58358;50.936;0.246;2022-08-21T10:15:32;6;5;
64631;PMS5003;58358;50.936;0.246;2022-08-21T10:17:59;9;8;
64631;PMS5003;58358;50.936;0.246;2022-08-21T10:20:20;7;6;
64631;PMS5003;58358;50.936;0.246;2022-08-21T10:22:47;6;4;
64631;PMS5003;58358;50.936;0.246;2022-08-21T10:25:13;8;6;
64631;PMS5003;58358;50.936;0.246;2022-08-21T10:27:39;4;4;
64631;PMS5003;58358;50.936;0.246;2022-08-21T10:30:03;4;4;
64631;PMS5003;58358;50.936;0.246;2022-08-21T10:34:56;5;5;
64631;PMS5003;58358;50.936;0.246;2022-08-21T10:37:25;8;8;
64631;PMS5003;58358;50.936;0.246;2022-08-21T10:39:47;7;6;
64631;PMS5003;58358;50.936;0.246;2022-08-21T10:42:17;7;6;
64631;PMS5003;58358;50.936;0.246;2022-08-21T10:44:37;9;6;
64631;PMS5003;58358;50.936;0.246;2022-08-21T10:47:02;4;4;
64631;PMS5003;58358;50.936;0.246;2022-08-21T10:49:29;7;5;
64631;PMS5003;58358;50.936;0.246;2022-08-21T10:51:55;5;5;
64631;PMS5003;58358;50.936;0.246;2022-08-21T10:54:20;6;5;
64631;PMS5003;58358;50.936;0.246;2022-08-21T10:56:43;7;7;
64631;PMS5003;58358;50.936;0.246;2022-08-21T11:01:39;7;6;
64631;PMS5003;58358;50.936;0.246;2022-08-21T11:04:05;3;3;
64631;PMS5003;58358;50.936;0.246;2022-08-21T11:06:27;6;6;
64631;PMS5003;58358;50.936;0.246;2022-08-21T11:08:52;6;5;
64631;PMS5003;58358;50.936;0.246;2022-08-21T11:11:19;6;6;
64631;PMS5003;58358;50.936;0.246;2022-08-21T11:13:44;5;5;
64631;PMS5003;58358;50.936;0.246;2022-08-21T11:16:11;9;7;
64631;PMS5003;58358;50.936;0.246;2022-08-21T11:18:36;9;8;
64631;PMS5003;58358;50.936;0.246;2022-08-21T11:21:02;7;7;
64631;PMS5003;58358;50.936;0.246;2022-08-21T11:23:27;9;6;
64631;PMS5003;58358;50.936;0.246;2022-08-21T11:25:52;13;12;
64631;PMS5003;58358;50.936;0.246;2022-08-21T11:28:17;7;7;
64631;PMS5003;58358;50.936;0.246;2022-08-21T11:30:48;4;4;
64631;PMS5003;58358;50.936;0.246;2022-08-21T11:33:11;6;5;
64631;PMS5003;58358;50.936;0.246;2022-08-21T11:35:34;8;5;
64631;PMS5003;58358;50.936;0.246;2022-08-21T11:38:01;5;5;
64631;PMS5003;58358;50.936;0.246;2022-08-21T11:40:30;5;5;
64631;PMS5003;58358;50.936;0.246;2022-08-21T11:42:50;6;6;
64631;PMS5003;58358;50.936;0.246;2022-08-21T11:45:18;4;4;
64631;PMS5003;58358;50.936;0.246;2022-08-21T11:47:46;3;3;
64631;PMS5003;58358;50.936;0.246;2022-08-21T11:50:12;6;4;
64631;PMS5003;58358;50.936;0.246;2022-08-21T11:52:33;5;5;
64631;PMS5003;58358;50.936;0.246;2022-08-21T11:54:57;9;6;
64631;PMS5003;58358;50.936;0.246;2022-08-21T11:57:24;7;5;
64631;PMS5003;58358;50.936;0.246;2022-08-21T11:59:51;5;4;
64631;PMS5003;58358;50.936;0.246;2022-08-21T12:02:15;7;6;
64631;PMS5003;58358;50.936;0.246;2022-08-21T12:04:43;4;4;
64631;PMS5003;58358;50.936;0.246;2022-08-21T12:07:10;7;6;
64631;PMS5003;58358;50.936;0.246;2022-08-21T12:09:33;4;4;
64631;PMS5003;58358;50.936;0.246;2022-08-21T12:12:01;6;6;
64631;PMS5003;58358;50.936;0.246;2022-08-21T12:14:22;7;5;
64631;PMS5003;58358;50.936;0.246;2022-08-21T12:16:48;6;5;
64631;PMS5003;58358;50.936;0.246;2022-08-21T12:19:14;4;4;
64631;PMS5003;58358;50.936;0.246;2022-08-21T12:21:48;7;4;
64631;PMS5003;58358;50.936;0.246;2022-08-21T12:24:15;5;5;
64631;PMS5003;58358;50.936;0.246;2022-08-21T12:26:31;3;3;
64631;PMS5003;58358;50.936;0.246;2022-08-21T12:29:05;6;6;
64631;PMS5003;58358;50.936;0.246;2022-08-21T12:31:22;5;4;
64631;PMS5003;58358;50.936;0.246;2022-08-21T12:33:52;5;5;
64631;PMS5003;58358;50.936;0.246;2022-08-21T12:36:13;4;4;
64631;PMS5003;58358;50.936;0.246;2022-08-21T12:38:41;3;3;
64631;PMS5003;58358;50.936;0.246;2022-08-21T12:41:06;4;4;
64631;PMS5003;58358;50.936;0.246;2022-08-21T12:43:31;4;4;
64631;PMS5003;58358;50.936;0.246;2022-08-21T12:45:55;8;5;
64631;PMS5003;58358;50.936;0.246;2022-08-21T12:48:22;7;7;
64631;PMS5003;58358;50.936;0.246;2022-08-21T12:50:48;8;8;
64631;PMS5003;58358;50.936;0.246;2022-08-21T12:53:13;26;26;
64631;PMS5003;58358;50.936;0.246;2022-08-21T12:55:37;7;7;
64631;PMS5003;58358;50.936;0.246;2022-08-21T12:58:04;7;7;
64631;PMS5003;58358;50.936;0.246;2022-08-21T13:00:28;3;3;
64631;PMS5003;58358;50.936;0.246;2022-08-21T13:02:55;7;5;
64631;PMS5003;58358;50.936;0.246;2022-08-21T13:05:23;5;5;
64631;PMS5003;58358;50.936;0.246;2022-08-21T13:07:46;7;5;
64631;PMS5003;58358;50.936;0.246;2022-08-21T13:10:14;6;6;
64631;PMS5003;58358;50.936;0.246;2022-08-21T13:12:37;7;5;
64631;PMS5003;58358;50.936;0.246;2022-08-21T13:15:04;4;4;
64631;PMS5003;58358;50.936;0.246;2022-08-21T13:17:29;6;5;
64631;PMS5003;58358;50.936;0.246;2022-08-21T13:19:53;7;4;
64631;PMS5003;58358;50.936;0.246;2022-08-21T13:22:18;5;3;
64631;PMS5003;58358;50.936;0.246;2022-08-21T13:24:46;17;16;
64631;PMS5003;58358;50.936;0.246;2022-08-21T13:27:16;9;9;
64631;PMS5003;58358;50.936;0.246;2022-08-21T13:29:35;14;14;
64631;PMS5003;58358;50.936;0.246;2022-08-21T13:32:01;13;12;
64631;PMS5003;58358;50.936;0.246;2022-08-21T13:34:29;15;12;
64631;PMS5003;58358;50.936;0.246;2022-08-21T13:36:52;8;8;
64631;PMS5003;58358;50.936;0.246;2022-08-21T13:39:18;11;9;
64631;PMS5003;58358;50.936;0.246;2022-08-21T13:41:44;18;18;
64631;PMS5003;58358;50.936;0.246;2022-08-21T13:46:36;12;11;
64631;PMS5003;58358;50.936;0.246;2022-08-21T13:49:02;8;5;
64631;PMS5003;58358;50.936;0.246;2022-08-21T13:51:25;5;3;
64631;PMS5003;58358;50.936;0.246;2022-08-21T13:53:51;14;14;
64631;PMS5003;58358;50.936;0.246;2022-08-21T13:56:23;9;7;
64631;PMS5003;58358;50.936;0.246;2022-08-21T13:58:43;42;42;
64631;PMS5003;58358;50.936;0.246;2022-08-21T14:03:36;7;7;
64631;PMS5003;58358;50.936;0.246;2022-08-21T14:05:59;10;9;
64631;PMS5003;58358;50.936;0.246;2022-08-21T14:08:27;5;4;
64631;PMS5003;58358;50.936;0.246;2022-08-21T14:10:51;14;14;
64631;PMS5003;58358;50.936;0.246;2022-08-21T14:15:41;9;8;
64631;PMS5003;58358;50.936;0.246;2022-08-21T14:18:07;19;17;
64631;PMS5003;58358;50.936;0.246;2022-08-21T14:20:33;8;7;
64631;PMS5003;58358;50.936;0.246;2022-08-21T14:22:58;3;3;
64631;PMS5003;58358;50.936;0.246;2022-08-21T14:25:27;14;10;
64631;PMS5003;58358;50.936;0.246;2022-08-21T14:27:49;23;20;
64631;PMS5003;58358;50.936;0.246;2022-08-21T14:30:16;23;22;
64631;PMS5003;58358;50.936;0.246;2022-08-21T14:32:40;10;7;
64631;PMS5003;58358;50.936;0.246;2022-08-21T14:35:05;11;10;
64631;PMS5003;58358;50.936;0.246;2022-08-21T14:37:30;35;30;
64631;PMS5003;58358;50.936;0.246;2022-08-21T14:39:56;28;28;
64631;PMS5003;58358;50.936;0.246;2022-08-21T14:42:21;9;8;
64631;PMS5003;58358;50.936;0.246;2022-08-21T14:44:47;6;6;
64631;PMS5003;58358;50.936;0.246;2022-08-21T14:47:12;8;6;
64631;PMS5003;58358;50.936;0.246;2022-08-21T14:49:38;7;6;
64631;PMS5003;58358;50.936;0.246;2022-08-21T14:52:03;5;4;
64631;PMS5003;58358;50.936;0.246;2022-08-21T14:54:30;5;5;
64631;PMS5003;58358;50.936;0.246;2022-08-21T14:56:55;6;6;
64631;PMS5003;58358;50.936;0.246;2022-08-21T14:59:20;8;6;
64631;PMS5003;58358;50.936;0.246;2022-08-21T15:01:46;7;5;
64631;PMS5003;58358;50.936;0.246;2022-08-21T15:04:11;7;5;
64631;PMS5003;58358;50.936;0.246;2022-08-21T15:06:37;19;18;
64631;PMS5003;58358;50.936;0.246;2022-08-21T15:09:04;6;5;
64631;PMS5003;58358;50.936;0.246;2022-08-21T15:11:29;6;6;
64631;PMS5003;58358;50.936;0.246;2022-08-21T15:13:55;6;6;
64631;PMS5003;58358;50.936;0.246;2022-08-21T15:16:20;7;6;
64631;PMS5003;58358;50.936;0.246;2022-08-21T15:18:46;6;5;
64631;PMS5003;58358;50.936;0.246;2022-08-21T15:21:11;6;5;
64631;PMS5003;58358;50.936;0.246;2022-08-21T15:23:37;5;5;
64631;PMS5003;58358;50.936;0.246;2022-08-21T15:26:03;5;5;
64631;PMS5003;58358;50.936;0.246;2022-08-21T15:28:28;8;6;
64631;PMS5003;58358;50.936;0.246;2022-08-21T15:30:55;5;5;
64631;PMS5003;58358;50.936;0.246;2022-08-21T15:33:19;5;5;
64631;PMS5003;58358;50.936;0.246;2022-08-21T15:35:45;5;5;
64631;PMS5003;58358;50.936;0.246;2022-08-21T15:38:10;7;5;
64631;PMS5003;58358;50.936;0.246;2022-08-21T15:40:35;7;7;
64631;PMS5003;58358;50.936;0.246;2022-08-21T15:43:01;6;6;
64631;PMS5003;58358;50.936;0.246;2022-08-21T15:45:26;6;6;
64631;PMS5003;58358;50.936;0.246;2022-08-21T15:47:51;11;9;
64631;PMS5003;58358;50.936;0.246;2022-08-21T15:50:17;5;4;
64631;PMS5003;58358;50.936;0.246;2022-08-21T15:52:42;5;5;
64631;PMS5003;58358;50.936;0.246;2022-08-21T15:55:09;5;5;
64631;PMS5003;58358;50.936;0.246;2022-08-21T15:57:34;8;8;
64631;PMS5003;58358;50.936;0.246;2022-08-21T16:00:00;6;5;
64631;PMS5003;58358;50.936;0.246;2022-08-21T16:02:27;5;5;
64631;PMS5003;58358;50.936;0.246;2022-08-21T16:04:52;5;5;
64631;PMS5003;58358;50.936;0.246;2022-08-21T16:07:16;5;5;
64631;PMS5003;58358;50.936;0.246;2022-08-21T16:09:42;8;7;
64631;PMS5003;58358;50.936;0.246;2022-08-21T16:12:09;9;6;
64631;PMS5003;58358;50.936;0.246;2022-08-21T16:14:33;6;6;
64631;PMS5003;58358;50.936;0.246;2022-08-21T16:16:59;7;5;
64631;PMS5003;58358;50.936;0.246;2022-08-21T16:19:24;4;3;
64631;PMS5003;58358;50.936;0.246;2022-08-21T16:21:50;6;6;
64631;PMS5003;58358;50.936;0.246;2022-08-21T16:24:15;3;3;
64631;PMS5003;58358;50.936;0.246;2022-08-21T16:26:41;4;4;
64631;PMS5003;58358;50.936;0.246;2022-08-21T16:29:07;4;3;
64631;PMS5003;58358;50.936;0.246;2022-08-21T16:31:32;6;6;
64631;PMS5003;58358;50.936;0.246;2022-08-21T16:33:57;5;5;
64631;PMS5003;58358;50.936;0.246;2022-08-21T16:36:25;3;3;
64631;PMS5003;58358;50.936;0.246;2022-08-21T16:38:49;5;5;
64631;PMS5003;58358;50.936;0.246;2022-08-21T16:41:15;6;6;
64631;PMS5003;58358;50.936;0.246;2022-08-21T16:43:40;6;5;
64631;PMS5003;58358;50.936;0.246;2022-08-21T16:46:06;8;8;
64631;PMS5003;58358;50.936;0.246;2022-08-21T16:48:30;6;6;